Time;durP1;ratioP1;P1;durP2;ratioP2;P2;SDS_P1;SDS_P2;PMS_P1;PMS_P2;Temp;Humidity;BMP_temperature;BMP_pressure;BME280_temperature;BME280_humidity;BME280_pressure;Samples;Min_cycle;Max_cycle;Signal;HPM_P1;HPM_P2
2021/11/14 05:00:30;;;;;;;55.10;34.25;;;9.30;99.90;;;;;;6117680;22;20395;31
2021/11/14 05:02:57;;;;;;;53.57;33.00;;;9.30;99.90;;;;;;4975029;28;20464;-73
2021/11/14 05:05:24;;;;;;;59.53;35.70;;;9.30;99.90;;;;;;4976327;28;20462;-74
2021/11/14 05:07:51;;;;;;;63.83;36.10;;;9.30;99.90;;;;;;4976364;28;20481;-73
2021/11/14 05:10:18;;;;;;;63.63;36.60;;;9.30;99.90;;;;;;4976750;28;20961;-75
2021/11/14 05:12:45;;;;;;;55.97;35.23;;;9.30;99.90;;;;;;4998714;28;20458;-73
2021/11/14 05:15:11;;;;;;;70.03;40.47;;;9.30;99.90;;;;;;4999165;28;20462;-73
2021/11/14 05:17:39;;;;;;;73.80;41.40;;;9.30;99.90;;;;;;4995607;28;20479;-72
2021/11/14 05:20:07;;;;;;;71.60;42.00;;;9.30;99.90;;;;;;4994677;28;20866;-72
2021/11/14 05:22:34;;;;;;;65.00;40.67;;;9.30;99.90;;;;;;4996055;28;20458;-72
2021/11/14 05:25:01;;;;;;;63.97;37.57;;;9.30;99.90;;;;;;4995326;28;20454;-72
2021/11/14 05:27:28;;;;;;;66.07;38.47;;;9.30;99.90;;;;;;4995158;28;20501;-73
2021/11/14 05:29:54;;;;;;;64.17;37.57;;;9.30;99.90;;;;;;4995101;28;20964;-72
2021/11/14 05:32:21;;;;;;;59.80;37.13;;;9.30;99.90;;;;;;4995102;28;20482;-73
2021/11/14 05:34:49;;;;;;;57.30;34.37;;;9.30;99.90;;;;;;4995437;28;20481;-73
2021/11/14 05:37:16;;;;;;;53.50;34.70;;;9.30;99.90;;;;;;4995423;28;20459;-73
2021/11/14 05:39:43;;;;;;;53.50;35.00;;;9.30;99.90;;;;;;4995286;28;20462;-72
2021/11/14 05:42:11;;;;;;;53.43;33.70;;;9.40;99.90;;;;;;4994936;28;20490;-72
2021/11/14 05:44:38;;;;;;;55.00;34.50;;;9.40;99.90;;;;;;4995123;28;20458;-72
2021/11/14 05:47:05;;;;;;;60.47;36.40;;;9.40;99.90;;;;;;4994794;28;21020;-72
2021/11/14 05:49:32;;;;;;;57.60;35.60;;;9.40;99.90;;;;;;4995772;28;20458;-72
2021/11/14 05:52:00;;;;;;;50.17;33.33;;;9.40;99.90;;;;;;4995049;28;20997;-72
2021/11/14 05:54:27;;;;;;;48.77;33.60;;;9.40;99.90;;;;;;4995103;28;20513;-73
2021/11/14 05:56:53;;;;;;;50.97;32.17;;;9.40;99.90;;;;;;4995048;28;20458;-72
2021/11/14 05:59:28;;;;;;;50.10;32.57;;;9.40;99.90;;;;;;4994788;28;20454;-73
2021/11/14 06:01:58;;;;;;;56.00;34.67;;;9.40;99.90;;;;;;4994713;28;20489;-72
2021/11/14 06:04:29;;;;;;;57.80;33.20;;;9.40;99.90;;;;;;4994713;28;20468;-74
2021/11/14 06:06:56;;;;;;;54.20;32.83;;;9.40;99.90;;;;;;4994497;28;20961;-72
2021/11/14 06:09:24;;;;;;;50.30;32.97;;;9.40;99.90;;;;;;4995259;28;20462;-73
2021/11/14 06:11:51;;;;;;;48.57;31.90;;;9.40;99.90;;;;;;4995061;28;20477;-74
2021/11/14 06:14:18;;;;;;;47.43;33.33;;;9.40;99.90;;;;;;4995046;28;20460;-72
2021/11/14 06:16:44;;;;;;;55.03;34.03;;;9.40;99.90;;;;;;4994858;28;20811;-72
2021/11/14 06:19:11;;;;;;;46.03;32.83;;;9.40;99.90;;;;;;5000575;28;20450;-72
2021/11/14 06:21:38;;;;;;;51.80;32.13;;;9.40;99.90;;;;;;5003058;28;20478;-72
2021/11/14 06:24:06;;;;;;;45.20;31.40;;;9.40;99.90;;;;;;5003251;28;20461;-73
2021/11/14 06:26:34;;;;;;;43.17;30.70;;;9.40;99.90;;;;;;4998676;28;20454;-73
2021/11/14 06:29:00;;;;;;;51.27;31.83;;;9.30;99.90;;;;;;4996539;28;20462;-74
2021/11/14 06:31:27;;;;;;;48.50;32.10;;;9.30;99.90;;;;;;4995945;28;20474;-75
2021/11/14 06:33:54;;;;;;;46.47;31.93;;;9.40;99.90;;;;;;4998930;28;20458;-77
2021/11/14 06:36:21;;;;;;;47.90;33.43;;;9.40;99.90;;;;;;4999050;28;20464;-75
2021/11/14 06:38:47;;;;;;;42.17;32.73;;;9.40;99.90;;;;;;4998955;28;20450;-74
2021/11/14 06:41:14;;;;;;;47.07;31.20;;;9.40;99.90;;;;;;4998872;28;20477;-74
2021/11/14 06:43:42;;;;;;;47.97;30.23;;;9.40;99.90;;;;;;5004611;28;20470;-74
2021/11/14 06:46:10;;;;;;;52.77;33.53;;;9.30;99.90;;;;;;5004978;28;20454;-74
2021/11/14 06:48:37;;;;;;;48.97;30.47;;;9.30;99.90;;;;;;5004976;28;20477;-74
2021/11/14 06:51:04;;;;;;;47.53;32.50;;;9.30;99.90;;;;;;5002858;28;21003;-74
2021/11/14 06:53:31;;;;;;;46.10;30.70;;;9.30;99.90;;;;;;5014447;28;20793;-71
2021/11/14 06:55:58;;;;;;;46.40;31.80;;;9.30;99.90;;;;;;5004868;28;20928;-74
2021/11/14 06:58:25;;;;;;;42.33;31.50;;;9.30;99.90;;;;;;4997545;28;20454;-74
2021/11/14 07:00:53;;;;;;;38.53;29.73;;;9.30;99.90;;;;;;4997753;28;20505;-74
2021/11/14 07:03:20;;;;;;;42.03;30.33;;;9.40;99.90;;;;;;4997787;28;20969;-73
2021/11/14 07:05:47;;;;;;;38.70;28.83;;;9.40;99.90;;;;;;4997892;28;20512;-73
2021/11/14 07:08:15;;;;;;;44.33;31.67;;;9.40;99.90;;;;;;4997752;28;20484;-72
2021/11/14 07:10:42;;;;;;;40.93;30.53;;;9.40;99.90;;;;;;4998149;28;20478;-73
2021/11/14 07:13:09;;;;;;;39.47;29.77;;;9.40;99.90;;;;;;4997818;28;20461;-73
2021/11/14 07:15:36;;;;;;;40.60;30.70;;;9.40;99.90;;;;;;4997461;28;20541;-73
2021/11/14 07:18:04;;;;;;;40.23;30.40;;;9.40;99.90;;;;;;4997581;28;20458;-73
2021/11/14 07:20:31;;;;;;;37.63;29.60;;;9.50;99.90;;;;;;4997475;28;20489;-73
2021/11/14 07:22:57;;;;;;;37.10;27.47;;;9.50;99.90;;;;;;4997309;28;20457;-73
2021/11/14 07:25:24;;;;;;;39.93;28.33;;;9.50;99.90;;;;;;4998372;28;20450;-73
2021/11/14 07:27:53;;;;;;;33.23;26.00;;;9.60;99.90;;;;;;4997338;28;20481;-72
2021/11/14 07:30:21;;;;;;;34.60;27.70;;;9.60;99.90;;;;;;4997140;28;20469;-72
2021/11/14 07:32:48;;;;;;;32.27;26.10;;;9.70;99.90;;;;;;4997454;28;20520;-72
2021/11/14 07:35:19;;;;;;;35.23;28.07;;;9.70;99.90;;;;;;4997256;28;20473;-72
2021/11/14 07:37:45;;;;;;;33.77;27.67;;;9.70;99.90;;;;;;4997163;28;20932;-73
2021/11/14 07:40:14;;;;;;;33.87;26.53;;;9.80;99.90;;;;;;4997823;28;20485;-73
2021/11/14 07:42:44;;;;;;;34.33;28.10;;;9.90;99.90;;;;;;4996293;28;20953;-74
2021/11/14 07:45:13;;;;;;;29.43;25.23;;;9.90;99.90;;;;;;4997304;28;20462;-73
2021/11/14 07:47:40;;;;;;;32.03;25.83;;;10.10;99.90;;;;;;4997084;28;20474;-73
2021/11/14 07:50:09;;;;;;;29.73;24.33;;;10.10;99.90;;;;;;4998490;28;20461;-73
2021/11/14 07:52:37;;;;;;;26.00;23.27;;;10.20;99.90;;;;;;5005128;28;20485;-73
2021/11/14 07:55:06;;;;;;;25.27;22.60;;;10.30;99.90;;;;;;5005006;28;20450;-74
2021/11/14 07:57:33;;;;;;;30.43;24.20;;;10.20;99.90;;;;;;4999736;28;20853;-74
2021/11/14 08:00:00;;;;;;;26.50;23.77;;;10.20;99.90;;;;;;4997181;28;20462;-74
2021/11/14 08:02:27;;;;;;;30.00;25.90;;;10.20;99.90;;;;;;4996365;28;20866;-74
2021/11/14 08:04:54;;;;;;;26.23;23.63;;;10.30;99.90;;;;;;4996569;28;20554;-74
2021/11/14 08:07:20;;;;;;;24.90;22.40;;;10.40;99.90;;;;;;4996870;28;20475;-73
2021/11/14 08:09:49;;;;;;;26.80;23.40;;;10.50;99.90;;;;;;4996467;28;20943;-72
2021/11/14 08:12:15;;;;;;;26.10;23.40;;;10.40;99.90;;;;;;4996790;28;20478;-73
2021/11/14 08:14:42;;;;;;;26.23;23.43;;;10.40;99.90;;;;;;4997505;28;20535;-74
2021/11/14 08:17:09;;;;;;;54.97;39.90;;;10.30;99.90;;;;;;5001037;28;20467;-75
2021/11/14 08:19:35;;;;;;;33.43;26.10;;;10.30;99.90;;;;;;4996719;28;20478;-75
2021/11/14 08:22:02;;;;;;;27.23;24.30;;;10.20;99.90;;;;;;4996433;28;20470;-75
2021/11/14 08:24:29;;;;;;;29.97;26.00;;;10.20;99.90;;;;;;4996700;28;20481;-75
2021/11/14 08:26:57;;;;;;;27.53;24.07;;;10.30;99.90;;;;;;4996825;28;20458;-75
2021/11/14 08:29:24;;;;;;;27.13;24.33;;;10.30;99.90;;;;;;4996365;28;20494;-74
2021/11/14 08:31:50;;;;;;;28.13;24.13;;;10.40;99.90;;;;;;4996395;28;20482;-74
2021/11/14 08:34:17;;;;;;;26.17;23.17;;;10.50;99.90;;;;;;4996198;28;20457;-75
2021/11/14 08:36:44;;;;;;;25.40;22.70;;;10.50;99.90;;;;;;4996468;28;20454;-74
2021/11/14 08:39:11;;;;;;;26.47;23.77;;;10.50;99.90;;;;;;4996046;28;20454;-75
2021/11/14 08:41:37;;;;;;;26.70;23.90;;;10.50;99.90;;;;;;4995739;28;21011;-75
2021/11/14 08:44:06;;;;;;;26.67;22.63;;;10.60;99.90;;;;;;4996084;28;20467;-75
2021/11/14 08:46:34;;;;;;;25.40;22.90;;;10.50;99.90;;;;;;4995784;28;20458;-75
2021/11/14 08:49:01;;;;;;;26.40;23.70;;;10.60;99.90;;;;;;4996137;28;20487;-74
2021/11/14 08:51:28;;;;;;;25.33;22.50;;;10.60;99.90;;;;;;4995987;28;20474;-74
2021/11/14 08:53:58;;;;;;;24.70;22.00;;;10.60;99.90;;;;;;4995914;28;20485;-75
2021/11/14 08:56:26;;;;;;;26.60;23.93;;;10.60;99.90;;;;;;4995915;28;20541;-74
2021/11/14 08:58:52;;;;;;;25.53;22.77;;;10.70;99.90;;;;;;4996103;28;20454;-75
2021/11/14 09:01:20;;;;;;;22.80;20.43;;;10.80;99.90;;;;;;4996198;28;20482;-75
2021/11/14 09:03:48;;;;;;;23.97;21.33;;;10.70;99.90;;;;;;4996787;28;20461;-75
2021/11/14 09:06:15;;;;;;;23.43;21.07;;;10.80;99.90;;;;;;4996273;28;20467;-75
2021/11/14 09:08:42;;;;;;;23.57;20.90;;;10.90;99.90;;;;;;4996308;28;20508;-74
2021/11/14 09:11:09;;;;;;;25.50;22.77;;;10.90;99.90;;;;;;4996150;28;20479;-74
2021/11/14 09:13:36;;;;;;;25.30;21.57;;;11.00;99.90;;;;;;4996024;28;20459;-74
2021/11/14 09:16:04;;;;;;;23.63;21.20;;;11.20;99.90;;;;;;4995979;28;20946;-74
2021/11/14 09:18:32;;;;;;;21.53;19.40;;;11.40;99.90;;;;;;4996043;28;20451;-75
2021/11/14 09:20:59;;;;;;;21.27;19.07;;;11.50;99.90;;;;;;4995918;28;20479;-75
2021/11/14 09:23:27;;;;;;;22.33;20.03;;;11.60;99.90;;;;;;4995752;28;20454;-74
2021/11/14 09:25:54;;;;;;;22.87;20.47;;;11.60;99.90;;;;;;4995861;28;20459;-74
2021/11/14 09:28:21;;;;;;;24.33;20.30;;;11.60;99.90;;;;;;4994995;28;20985;-75
2021/11/14 09:30:50;;;;;;;23.90;20.33;;;11.60;99.90;;;;;;4995461;28;20530;-75
2021/11/14 09:33:18;;;;;;;21.57;19.47;;;11.60;99.90;;;;;;4996057;28;20458;-74
2021/11/14 09:35:47;;;;;;;22.07;19.70;;;11.40;99.90;;;;;;4995619;28;20459;-75
2021/11/14 09:38:14;;;;;;;20.60;18.47;;;11.50;99.90;;;;;;4995592;28;20462;-75
2021/11/14 09:40:41;;;;;;;21.63;19.50;;;11.50;99.90;;;;;;4995178;28;20500;-74
2021/11/14 09:43:09;;;;;;;22.57;20.27;;;11.40;99.90;;;;;;4995042;28;20458;-74
2021/11/14 09:45:37;;;;;;;24.80;19.33;;;11.40;99.90;;;;;;4996297;28;20465;-74
2021/11/14 09:48:05;;;;;;;21.13;18.93;;;11.50;99.90;;;;;;5005198;28;21100;-75
2021/11/14 09:50:32;;;;;;;21.53;19.33;;;11.50;99.90;;;;;;4997677;28;20490;-74
2021/11/14 09:53:00;;;;;;;22.07;19.87;;;11.50;99.90;;;;;;4995279;28;20981;-75
2021/11/14 09:55:34;;;;;;;23.57;21.03;;;11.50;99.90;;;;;;4995714;28;20825;-75
2021/11/14 09:58:01;;;;;;;21.57;19.47;;;11.50;99.90;;;;;;4995273;28;20471;-75
2021/11/14 10:00:28;;;;;;;21.27;19.03;;;11.40;99.90;;;;;;4994852;28;20857;-75
2021/11/14 10:02:55;;;;;;;23.10;20.83;;;11.50;99.90;;;;;;4995273;28;20435;-74
2021/11/14 10:05:22;;;;;;;22.43;20.13;;;11.40;99.90;;;;;;4995036;28;20462;-74
2021/11/14 10:07:57;;;;;;;22.33;20.03;;;11.40;99.90;;;;;;4998652;28;20459;-74
2021/11/14 10:10:28;;;;;;;21.80;19.47;;;11.40;99.90;;;;;;4999209;28;20538;-74
2021/11/14 10:12:55;;;;;;;21.40;19.10;;;11.40;99.90;;;;;;4999261;28;20466;-75
2021/11/14 10:15:25;;;;;;;22.83;20.70;;;11.40;99.90;;;;;;4999215;28;20465;-74
2021/11/14 10:17:55;;;;;;;22.70;20.30;;;11.30;99.90;;;;;;4999197;28;20861;-75
2021/11/14 10:20:23;;;;;;;22.60;20.30;;;11.30;99.90;;;;;;4999019;28;20557;-75
2021/11/14 10:22:52;;;;;;;23.20;20.80;;;11.40;99.90;;;;;;4999562;28;20466;-75
2021/11/14 10:25:20;;;;;;;22.73;19.70;;;11.40;99.90;;;;;;5000266;28;20458;-75
2021/11/14 10:27:53;;;;;;;21.80;19.37;;;11.50;99.90;;;;;;4999583;28;20824;-75
2021/11/14 10:30:24;;;;;;;23.10;20.77;;;11.60;99.90;;;;;;4999864;28;20443;-74
2021/11/14 10:32:52;;;;;;;23.33;21.07;;;11.70;99.90;;;;;;4999994;28;20481;-74
2021/11/14 10:35:19;;;;;;;24.90;21.13;;;11.60;99.90;;;;;;5000202;28;20450;-75
2021/11/14 10:37:46;;;;;;;24.30;21.03;;;11.60;99.90;;;;;;4999687;28;20534;-75
2021/11/14 10:40:17;;;;;;;24.73;21.70;;;11.60;99.90;;;;;;4998626;28;20460;-75
2021/11/14 10:42:46;;;;;;;25.97;22.90;;;11.60;99.90;;;;;;4999036;28;20497;-75
2021/11/14 10:45:15;;;;;;;24.33;21.63;;;11.50;99.90;;;;;;4998790;28;20819;-75
2021/11/14 10:47:42;;;;;;;23.60;21.17;;;11.60;99.90;;;;;;4999739;28;20482;-76
2021/11/14 10:50:13;;;;;;;24.77;21.87;;;11.70;99.90;;;;;;4997775;28;21050;-75
2021/11/14 10:52:51;;;;;;;24.20;21.13;;;11.60;99.90;;;;;;4998186;28;20440;-75
2021/11/14 10:55:19;;;;;;;23.90;21.40;;;11.70;99.90;;;;;;4998009;28;20442;-75
2021/11/14 10:57:46;;;;;;;22.73;20.30;;;11.70;99.90;;;;;;4999010;28;20453;-75
2021/11/14 11:00:15;;;;;;;24.23;21.10;;;11.90;99.90;;;;;;4998061;28;20914;-75
2021/11/14 11:02:43;;;;;;;23.50;21.00;;;11.90;99.90;;;;;;5002458;28;20451;-75
2021/11/14 11:05:13;;;;;;;24.10;20.63;;;12.00;99.90;;;;;;5007396;28;20454;-75
2021/11/14 11:07:42;;;;;;;23.57;20.97;;;12.00;99.90;;;;;;5000751;28;20500;-76
2021/11/14 11:10:09;;;;;;;23.90;21.37;;;11.90;99.90;;;;;;4998848;28;20556;-75
2021/11/14 11:12:36;;;;;;;24.77;20.97;;;11.90;99.90;;;;;;4998558;28;20474;-75
2021/11/14 11:15:06;;;;;;;27.43;23.80;;;11.80;99.90;;;;;;4998025;28;20457;-75
2021/11/14 11:17:45;;;;;;;30.77;24.70;;;11.80;99.90;;;;;;4997995;28;20454;-75
2021/11/14 11:20:14;;;;;;;25.80;23.10;;;11.70;99.90;;;;;;5008529;28;20458;-75
2021/11/14 11:22:53;;;;;;;25.63;22.83;;;11.70;99.90;;;;;;4998003;28;20456;-75
2021/11/14 11:25:36;;;;;;;26.67;23.40;;;11.50;99.90;;;;;;4997794;28;20444;-75
2021/11/14 11:28:04;;;;;;;32.87;23.17;;;11.60;99.90;;;;;;4997602;28;20447;-74
2021/11/14 11:30:36;;;;;;;27.93;23.07;;;11.50;99.90;;;;;;4997595;28;20456;-75
2021/11/14 11:33:04;;;;;;;31.43;23.80;;;11.40;99.90;;;;;;4998071;28;20443;-75
2021/11/14 11:35:32;;;;;;;31.97;25.03;;;11.40;99.90;;;;;;4997416;28;20459;-75
2021/11/14 11:37:59;;;;;;;27.63;22.67;;;11.40;99.90;;;;;;4997096;28;20462;-75
2021/11/14 11:40:26;;;;;;;30.17;22.60;;;11.40;99.90;;;;;;4996992;28;20941;-75
2021/11/14 11:42:54;;;;;;;30.67;23.07;;;11.30;99.90;;;;;;4997672;28;20481;-75
2021/11/14 11:45:32;;;;;;;29.50;21.90;;;11.20;99.90;;;;;;4997252;28;20513;-74
2021/11/14 11:48:00;;;;;;;30.90;21.60;;;11.10;99.90;;;;;;4997008;28;20926;-74
2021/11/14 11:50:33;;;;;;;27.53;21.70;;;11.20;99.90;;;;;;4997206;28;20836;-74
2021/11/14 11:53:01;;;;;;;30.23;22.07;;;11.30;99.90;;;;;;4997484;28;20806;-75
2021/11/14 11:55:32;;;;;;;28.57;20.83;;;11.40;99.90;;;;;;4997607;28;20817;-75
2021/11/14 11:58:10;;;;;;;26.93;21.40;;;11.60;99.90;;;;;;4997592;28;20466;-75
2021/11/14 12:00:52;;;;;;;27.07;21.10;;;11.80;99.90;;;;;;4997319;28;20479;-74
2021/11/14 12:03:27;;;;;;;23.67;19.70;;;11.90;99.90;;;;;;4997271;28;20439;-74
2021/11/14 12:05:56;;;;;;;26.60;20.27;;;12.00;99.90;;;;;;4996868;28;20956;-74
2021/11/14 12:08:33;;;;;;;30.27;21.10;;;12.00;99.90;;;;;;4997328;28;20455;-76
2021/11/14 12:11:00;;;;;;;25.27;21.57;;;12.00;99.90;;;;;;4997068;28;20832;-75
2021/11/14 12:13:29;;;;;;;29.60;22.20;;;12.10;99.90;;;;;;4996745;28;20458;-74
2021/11/14 12:15:59;;;;;;;27.47;21.60;;;12.10;99.90;;;;;;4996688;28;20467;-75
2021/11/14 12:18:37;;;;;;;28.73;20.73;;;12.10;99.90;;;;;;4996497;28;20440;-75
2021/11/14 12:21:17;;;;;;;24.73;20.10;;;12.00;99.90;;;;;;4996886;28;20485;-75
2021/11/14 12:23:53;;;;;;;27.60;21.43;;;12.10;99.90;;;;;;4996657;28;20451;-74
2021/11/14 12:26:27;;;;;;;24.73;20.50;;;12.10;99.90;;;;;;4996609;28;20456;-76
2021/11/14 12:28:57;;;;;;;26.90;21.27;;;12.20;99.90;;;;;;4996423;28;20475;-75
2021/11/14 12:31:25;;;;;;;25.80;21.23;;;12.40;99.90;;;;;;4996851;28;20516;-76
2021/11/14 12:33:54;;;;;;;28.03;21.73;;;12.40;99.90;;;;;;4996681;28;20455;-75
2021/11/14 12:36:32;;;;;;;27.00;20.80;;;12.40;99.90;;;;;;4996644;28;20822;-75
2021/11/14 12:39:07;;;;;;;26.47;19.80;;;12.50;99.90;;;;;;4996781;28;20440;-75
2021/11/14 12:41:34;;;;;;;27.43;21.77;;;12.30;99.90;;;;;;4996542;28;20478;-75
2021/11/14 12:44:01;;;;;;;25.00;21.10;;;12.30;99.90;;;;;;4996696;28;20465;-75
2021/11/14 12:46:28;;;;;;;24.23;21.37;;;12.30;99.90;;;;;;4996819;28;20452;-75
2021/11/14 12:48:55;;;;;;;25.63;20.40;;;12.40;99.90;;;;;;4996769;28;20472;-75
2021/11/14 12:51:26;;;;;;;25.73;20.90;;;12.40;99.90;;;;;;5001653;28;20483;-75
2021/11/14 12:53:55;;;;;;;27.57;21.67;;;12.40;99.90;;;;;;4999013;28;20445;-76
2021/11/14 12:56:28;;;;;;;27.87;19.73;;;12.20;99.90;;;;;;4997847;28;20455;-76
2021/11/14 12:58:55;;;;;;;24.93;21.00;;;12.20;99.90;;;;;;4997578;28;20441;-76
2021/11/14 13:01:23;;;;;;;23.40;19.10;;;12.20;99.90;;;;;;4996915;28;21005;-76
2021/11/14 13:03:51;;;;;;;24.37;20.20;;;12.20;99.90;;;;;;4997827;28;20461;-76
2021/11/14 13:06:20;;;;;;;22.40;18.73;;;12.20;99.90;;;;;;4997922;28;20468;-74
2021/11/14 13:08:48;;;;;;;25.43;21.33;;;12.00;99.90;;;;;;4996527;28;20471;-75
2021/11/14 13:11:24;;;;;;;23.97;19.67;;;12.00;99.90;;;;;;4996218;28;20484;-75
2021/11/14 13:13:54;;;;;;;21.43;19.20;;;11.90;99.90;;;;;;4996164;28;20904;-75
2021/11/14 13:16:25;;;;;;;22.97;18.97;;;11.80;99.90;;;;;;4996822;28;20455;-75
2021/11/14 13:18:52;;;;;;;23.73;20.67;;;11.90;99.90;;;;;;4996431;28;20907;-76
2021/11/14 13:21:23;;;;;;;26.80;20.20;;;11.80;99.90;;;;;;4996571;28;20494;-76
2021/11/14 13:23:56;;;;;;;21.43;18.90;;;11.90;99.90;;;;;;4996299;28;20450;-76
2021/11/14 13:26:30;;;;;;;24.20;18.20;;;12.00;99.90;;;;;;4995722;28;20446;-76
2021/11/14 13:28:57;;;;;;;22.37;19.83;;;12.10;99.90;;;;;;4996742;28;20812;-75
2021/11/14 13:31:25;;;;;;;24.27;20.53;;;12.00;99.90;;;;;;4996139;28;20838;-76
2021/11/14 13:34:00;;;;;;;22.07;19.13;;;12.10;99.90;;;;;;5000459;28;20969;-75
2021/11/14 13:36:27;;;;;;;22.57;18.70;;;12.20;99.90;;;;;;5005048;28;20455;-75
2021/11/14 13:38:56;;;;;;;21.40;19.10;;;12.20;99.90;;;;;;5005882;28;20961;-76
2021/11/14 13:41:23;;;;;;;21.73;19.20;;;12.20;99.90;;;;;;5007645;28;20479;-74
2021/11/14 13:43:54;;;;;;;21.17;18.97;;;12.20;99.90;;;;;;5002363;28;20458;-76
2021/11/14 13:46:23;;;;;;;21.07;18.33;;;12.10;99.90;;;;;;4995807;28;20852;-76
2021/11/14 13:48:51;;;;;;;21.33;18.20;;;12.20;99.90;;;;;;4995811;28;20469;-75
2021/11/14 13:51:18;;;;;;;20.37;18.03;;;12.30;99.90;;;;;;4995584;28;20552;-75
2021/11/14 13:53:45;;;;;;;23.07;18.50;;;12.40;99.90;;;;;;4995933;28;20460;-75
2021/11/14 13:56:14;;;;;;;20.83;17.30;;;12.40;99.90;;;;;;4995557;28;20456;-75
2021/11/14 13:58:45;;;;;;;20.87;17.70;;;12.50;99.90;;;;;;4995555;28;20563;-76
2021/11/14 14:01:13;;;;;;;20.07;17.90;;;12.50;99.90;;;;;;4995710;28;20495;-75
2021/11/14 14:03:41;;;;;;;19.07;17.07;;;12.30;99.90;;;;;;4995964;28;20507;-75
2021/11/14 14:06:09;;;;;;;20.37;17.27;;;12.40;99.90;;;;;;4995642;28;20459;-75
2021/11/14 14:08:37;;;;;;;20.40;18.20;;;12.30;99.90;;;;;;4995250;28;20455;-75
2021/11/14 14:11:07;;;;;;;17.63;15.50;;;12.30;99.90;;;;;;4995256;28;20489;-75
2021/11/14 14:13:36;;;;;;;18.87;16.17;;;12.20;99.90;;;;;;4995283;28;20492;-75
2021/11/14 14:16:05;;;;;;;17.73;15.80;;;12.20;99.90;;;;;;4994446;28;20462;-75
2021/11/14 14:18:38;;;;;;;17.53;15.80;;;12.20;99.90;;;;;;4994965;28;20459;-75
2021/11/14 14:21:05;;;;;;;17.43;15.63;;;12.20;99.90;;;;;;4995617;28;20478;-75
2021/11/14 14:23:36;;;;;;;20.30;16.60;;;12.20;99.90;;;;;;5003767;28;20458;-75
2021/11/14 14:26:03;;;;;;;17.60;15.70;;;12.00;99.90;;;;;;4994850;28;20912;-75
2021/11/14 14:28:32;;;;;;;17.43;15.53;;;12.00;99.90;;;;;;4995131;28;20878;-75
2021/11/14 14:31:01;;;;;;;17.83;15.77;;;12.00;99.90;;;;;;4995026;28;20497;-75
2021/11/14 14:33:29;;;;;;;16.30;14.40;;;11.90;99.90;;;;;;4995009;28;20465;-75
2021/11/14 14:35:59;;;;;;;16.67;14.87;;;11.90;99.90;;;;;;4995215;28;20573;-75
2021/11/14 14:38:28;;;;;;;18.30;15.73;;;11.90;99.90;;;;;;4994987;28;20438;-75
2021/11/14 14:40:57;;;;;;;18.47;16.23;;;12.00;99.90;;;;;;4994860;28;20478;-75
2021/11/14 14:43:26;;;;;;;15.90;14.23;;;11.90;99.90;;;;;;4995070;28;20460;-75
2021/11/14 14:45:56;;;;;;;16.83;14.00;;;12.00;99.90;;;;;;4994815;28;20459;-75
2021/11/14 14:48:27;;;;;;;16.00;13.80;;;12.00;99.90;;;;;;4994681;28;20970;-75
2021/11/14 14:50:57;;;;;;;16.13;14.57;;;12.00;99.90;;;;;;4995048;28;20493;-75
2021/11/14 14:53:31;;;;;;;16.37;14.60;;;12.00;99.90;;;;;;4997786;28;20458;-75
2021/11/14 14:56:04;;;;;;;17.00;13.87;;;12.00;99.90;;;;;;4998609;28;20443;-75
2021/11/14 14:58:31;;;;;;;16.60;12.47;;;12.00;99.90;;;;;;5003882;28;20440;-76
2021/11/14 15:00:58;;;;;;;15.30;13.70;;;12.00;99.90;;;;;;5000299;28;21023;-75
2021/11/14 15:03:37;;;;;;;15.10;13.47;;;12.00;99.90;;;;;;4998838;28;20835;-74
2021/11/14 15:06:05;;;;;;;17.80;12.93;;;11.90;99.90;;;;;;5001391;28;20442;-75
2021/11/14 15:08:33;;;;;;;16.10;13.90;;;11.80;99.90;;;;;;4998755;28;20461;-74
2021/11/14 15:11:00;;;;;;;15.03;13.43;;;11.80;99.90;;;;;;4998796;28;20545;-75
2021/11/14 15:13:27;;;;;;;13.80;12.40;;;11.70;99.90;;;;;;5007534;28;20455;-75
2021/11/14 15:15:54;;;;;;;15.30;13.30;;;11.60;99.90;;;;;;4999517;28;20465;-74
2021/11/14 15:18:21;;;;;;;15.80;14.17;;;11.60;99.90;;;;;;4998630;28;20454;-74
2021/11/14 15:20:49;;;;;;;13.63;12.20;;;11.50;99.90;;;;;;4997873;28;20478;-74
2021/11/14 15:23:18;;;;;;;14.20;12.70;;;11.50;99.90;;;;;;4997964;28;20462;-75
2021/11/14 15:25:48;;;;;;;15.87;13.60;;;11.50;99.90;;;;;;4997739;28;20869;-74
2021/11/14 15:28:18;;;;;;;13.83;12.43;;;11.50;99.90;;;;;;4997834;28;20462;-75
2021/11/14 15:30:47;;;;;;;15.87;13.43;;;11.50;99.90;;;;;;4997250;28;20537;-74
2021/11/14 15:33:17;;;;;;;13.90;12.30;;;11.50;99.90;;;;;;4998268;28;20446;-75
2021/11/14 15:35:46;;;;;;;13.73;12.27;;;11.50;99.90;;;;;;4997857;28;20438;-75
2021/11/14 15:38:15;;;;;;;15.37;12.97;;;11.40;99.90;;;;;;4998101;28;20458;-74
2021/11/14 15:40:43;;;;;;;16.50;13.53;;;11.40;99.90;;;;;;4997801;28;20481;-74
2021/11/14 15:43:10;;;;;;;14.57;11.97;;;11.40;99.90;;;;;;4997748;28;20954;-74
2021/11/14 15:45:38;;;;;;;15.37;13.07;;;11.40;99.90;;;;;;4997417;28;20439;-74
2021/11/14 15:48:07;;;;;;;14.30;12.77;;;11.40;99.90;;;;;;4997011;28;20911;-74
2021/11/14 15:50:35;;;;;;;19.00;13.30;;;11.30;99.90;;;;;;4997276;28;20485;-74
2021/11/14 15:53:03;;;;;;;19.40;12.83;;;11.20;99.90;;;;;;4997714;28;20455;-74
2021/11/14 15:55:35;;;;;;;18.80;13.73;;;11.20;99.90;;;;;;5006301;28;20445;-74
2021/11/14 15:58:04;;;;;;;18.80;14.67;;;11.20;99.90;;;;;;4997329;28;20443;-74
2021/11/14 16:00:33;;;;;;;13.57;12.10;;;11.20;99.90;;;;;;4997132;28;20435;-74
2021/11/14 16:03:00;;;;;;;13.20;11.83;;;11.10;99.90;;;;;;4997306;28;20443;-73
2021/11/14 16:05:28;;;;;;;13.00;10.63;;;11.10;99.90;;;;;;4997117;28;20466;-73
2021/11/14 16:07:55;;;;;;;13.93;11.93;;;11.10;99.90;;;;;;4997179;28;20457;-74
2021/11/14 16:10:24;;;;;;;14.00;12.10;;;11.10;99.90;;;;;;4996925;28;20489;-74
2021/11/14 16:12:55;;;;;;;14.90;12.47;;;11.00;99.90;;;;;;4997050;28;20547;-75
2021/11/14 16:15:23;;;;;;;13.77;12.37;;;11.10;99.90;;;;;;4997085;28;20914;-75
2021/11/14 16:17:50;;;;;;;12.63;11.40;;;11.10;99.90;;;;;;4996424;28;20553;-74
2021/11/14 16:20:20;;;;;;;14.50;13.00;;;11.10;99.90;;;;;;4996342;28;20452;-74
2021/11/14 16:22:47;;;;;;;15.50;13.00;;;11.10;99.90;;;;;;4997014;28;20450;-74
2021/11/14 16:25:14;;;;;;;13.93;12.57;;;10.90;99.90;;;;;;4996453;28;20463;-74
2021/11/14 16:27:42;;;;;;;13.83;12.43;;;11.00;99.90;;;;;;4996697;28;20465;-74
2021/11/14 16:30:12;;;;;;;14.63;13.10;;;10.90;99.90;;;;;;4997132;28;20480;-73
2021/11/14 16:32:39;;;;;;;13.70;12.30;;;10.80;99.90;;;;;;4996799;28;20480;-74
2021/11/14 16:35:07;;;;;;;13.40;12.00;;;10.80;99.90;;;;;;4996327;28;20469;-74
2021/11/14 16:37:34;;;;;;;13.90;12.00;;;10.90;99.90;;;;;;4996146;28;20450;-72
2021/11/14 16:40:01;;;;;;;15.20;12.47;;;10.90;99.90;;;;;;4996334;28;20462;-72
2021/11/14 16:42:28;;;;;;;13.93;12.40;;;10.90;99.90;;;;;;4996357;28;20483;-72
2021/11/14 16:44:55;;;;;;;12.93;11.53;;;10.90;99.90;;;;;;4997861;28;20458;-72
2021/11/14 16:47:24;;;;;;;14.70;13.23;;;10.90;99.90;;;;;;4996493;28;20486;-73
2021/11/14 16:49:52;;;;;;;15.90;13.03;;;10.80;99.90;;;;;;4996478;28;20458;-73
2021/11/14 16:52:20;;;;;;;12.90;11.60;;;10.80;99.90;;;;;;4996332;28;20564;-72
2021/11/14 16:54:46;;;;;;;15.33;13.43;;;10.80;99.90;;;;;;4996344;28;20459;-72
2021/11/14 16:57:14;;;;;;;18.00;12.87;;;10.80;99.90;;;;;;4996196;28;20458;-71
2021/11/14 16:59:42;;;;;;;12.37;11.27;;;10.90;99.90;;;;;;4996157;28;20490;-72
2021/11/14 17:02:09;;;;;;;12.87;11.67;;;10.90;99.90;;;;;;4996373;28;20509;-71
2021/11/14 17:04:37;;;;;;;12.00;10.90;;;10.90;99.90;;;;;;4996346;28;20461;-73
2021/11/14 17:07:05;;;;;;;11.80;10.60;;;10.90;99.90;;;;;;4996127;28;20464;-74
2021/11/14 17:09:32;;;;;;;12.23;11.10;;;10.90;99.90;;;;;;4996358;28;20491;-74
2021/11/14 17:11:58;;;;;;;10.87;9.87;;;10.90;99.90;;;;;;4995972;28;20485;-73
2021/11/14 17:14:25;;;;;;;11.40;10.30;;;10.90;99.90;;;;;;4996461;28;20462;-73
2021/11/14 17:16:52;;;;;;;12.30;10.47;;;10.90;99.90;;;;;;5008977;28;20457;-73
2021/11/14 17:19:19;;;;;;;11.83;10.73;;;11.00;99.90;;;;;;5013248;28;20454;-74
2021/11/14 17:21:47;;;;;;;11.20;10.10;;;10.90;99.90;;;;;;4997882;28;20845;-73
2021/11/14 17:24:15;;;;;;;13.43;12.10;;;10.90;99.90;;;;;;4996017;28;20484;-72
2021/11/14 17:26:42;;;;;;;12.30;11.00;;;10.90;99.90;;;;;;4997496;28;20473;-73
2021/11/14 17:29:08;;;;;;;13.83;12.53;;;10.90;99.90;;;;;;4998165;28;20462;-73
2021/11/14 17:31:35;;;;;;;14.13;12.80;;;10.90;99.90;;;;;;4995027;28;20487;-73
2021/11/14 17:34:02;;;;;;;14.23;12.63;;;10.80;99.90;;;;;;4996143;28;20461;-73